Time;durP1;ratioP1;P1;durP2;ratioP2;P2;SDS_P1;SDS_P2;PMS_P1;PMS_P2;Temp;Humidity;BMP_temperature;BMP_pressure;BME280_temperature;BME280_humidity;BME280_pressure;Samples;Min_cycle;Max_cycle;Signal;HPM_P1;HPM_P2
2022/08/04 00:00:20;;;;;;;11.98;5.82;;;;;;;20.07;88.33;101254.50;5113420;28;20471;-74
2022/08/04 00:03:00;;;;;;;11.18;6.53;;;;;;;20.07;87.76;101245.81;5113179;28;20061;-76
2022/08/04 00:06:10;;;;;;;10.07;6.05;;;;;;;19.89;87.52;101212.53;5113614;28;20028;-78
2022/08/04 00:08:55;;;;;;;12.13;6.20;;;;;;;20.00;87.97;101242.97;5050601;28;20029;-76
2022/08/04 00:11:22;;;;;;;10.20;6.15;;;;;;;19.86;88.33;101228.56;5050647;28;20472;-75
2022/08/04 00:14:15;;;;;;;12.60;6.43;;;;;;;19.90;88.27;101235.16;5050673;28;20078;-75
2022/08/04 00:16:42;;;;;;;12.43;6.47;;;;;;;19.72;88.67;101202.84;5050644;28;20583;-74
2022/08/04 00:19:16;;;;;;;11.68;5.90;;;;;;;19.88;88.26;101236.28;5050639;28;20080;-77
2022/08/04 00:21:49;;;;;;;11.77;6.35;;;;;;;19.77;88.85;101232.88;5050563;28;20041;-75
2022/08/04 00:24:15;;;;;;;10.63;6.47;;;;;;;19.77;88.54;101240.75;5050057;28;20029;-73
2022/08/04 00:26:42;;;;;;;13.10;6.38;;;;;;;19.74;88.54;101235.78;5050482;28;20477;-75
2022/08/04 00:29:07;;;;;;;13.82;7.05;;;;;;;19.71;89.09;101236.06;5050518;28;20049;-76
2022/08/04 00:31:33;;;;;;;11.60;6.82;;;;;;;19.69;88.35;101229.34;5049831;28;20562;-75
2022/08/04 00:33:59;;;;;;;15.55;6.45;;;;;;;19.68;88.29;101232.94;5050426;28;20116;-78
2022/08/04 00:36:25;;;;;;;17.58;6.68;;;;;;;19.66;88.08;101227.81;5050478;28;20036;-80
2022/08/04 00:38:51;;;;;;;12.63;6.72;;;;;;;19.64;88.21;101219.28;5050253;28;20044;-74
2022/08/04 00:41:32;;;;;;;12.32;7.30;;;;;;;19.65;88.21;101217.50;5050300;28;20104;-75
2022/08/04 00:44:19;;;;;;;12.10;7.37;;;;;;;19.54;88.56;101200.13;5061978;28;20520;-74
2022/08/04 00:46:50;;;;;;;12.55;7.50;;;;;;;19.52;88.88;101215.19;5112924;28;20379;-77
2022/08/04 00:49:56;;;;;;;12.07;7.15;;;;;;;19.48;87.99;101195.50;5113152;28;20028;-81
2022/08/04 00:52:35;;;;;;;12.05;7.15;;;;;;;19.51;88.76;101216.16;5033574;28;20037;-76
2022/08/04 00:55:24;;;;;;;15.30;7.40;;;;;;;19.48;88.24;101213.84;5050200;28;20216;-79
2022/08/04 00:58:18;;;;;;;11.77;7.68;;;;;;;19.49;88.30;101208.44;5050335;28;20041;-79
2022/08/04 01:01:04;;;;;;;12.93;7.47;;;;;;;19.46;88.31;101213.94;5049956;28;20032;-77
2022/08/04 01:03:48;;;;;;;13.30;7.57;;;;;;;19.37;89.45;101208.75;5050065;28;20049;-74
2022/08/04 01:06:28;;;;;;;14.68;7.95;;;;;;;19.37;89.25;101208.75;5050132;28;20516;-75
2022/08/04 01:09:08;;;;;;;11.95;7.20;;;;;;;19.35;89.00;101200.22;5050233;28;20025;-80
2022/08/04 01:12:02;;;;;;;11.93;8.30;;;;;;;19.34;88.72;101202.03;5049649;28;20029;-79
2022/08/04 01:14:50;;;;;;;14.95;7.70;;;;;;;19.36;88.57;101188.78;5053060;28;20029;-80
2022/08/04 01:17:32;;;;;;;14.00;8.30;;;;;;;19.30;88.94;101192.81;5053899;28;20123;-74
2022/08/04 01:20:07;;;;;;;12.35;7.38;;;;;;;19.28;89.02;101191.31;5053845;28;20037;-79
2022/08/04 01:22:32;;;;;;;14.90;8.27;;;;;;;19.29;89.20;101191.16;5071220;28;20063;-74
2022/08/04 01:25:01;;;;;;;11.77;7.90;;;;;;;19.23;89.31;101190.91;5116740;28;20055;-72
2022/08/04 01:27:35;;;;;;;13.15;7.45;;;;;;;19.22;89.35;101189.25;5116746;28;20026;-80
2022/08/04 01:30:01;;;;;;;13.30;8.10;;;;;;;19.12;89.61;101174.41;5116278;28;20035;-79
2022/08/04 01:32:36;;;;;;;12.05;7.60;;;;;;;19.16;89.61;101181.00;5116256;28;20031;-79
2022/08/04 01:35:07;;;;;;;14.55;8.40;;;;;;;19.12;90.01;101184.06;5116169;28;20024;-76
2022/08/04 01:37:59;;;;;;;13.95;8.00;;;;;;;19.13;89.12;101178.69;5114953;28;20016;-76
2022/08/04 01:40:26;;;;;;;11.88;7.95;;;;;;;19.08;89.85;101170.44;5116252;28;20023;-78
2022/08/04 01:42:53;;;;;;;13.05;8.20;;;;;;;19.03;90.19;101163.97;5114595;28;20420;-78
2022/08/04 01:45:19;;;;;;;13.35;7.78;;;;;;;18.94;90.14;101157.81;5115915;28;20077;-79
2022/08/04 01:47:53;;;;;;;13.00;8.18;;;;;;;19.00;90.51;101170.34;5116164;28;20028;-74
2022/08/04 01:50:19;;;;;;;18.67;8.68;;;;;;;18.97;89.94;101169.78;5116043;28;20032;-74
2022/08/04 01:52:45;;;;;;;11.50;8.43;;;;;;;18.92;90.29;101157.94;5115818;28;20482;-74
2022/08/04 01:55:14;;;;;;;13.55;8.45;;;;;;;18.89;90.51;101168.72;5115883;28;20066;-76
2022/08/04 01:57:42;;;;;;;13.70;8.68;;;;;;;18.86;90.87;101163.75;5115851;28;20028;-80
2022/08/04 02:00:10;;;;;;;14.23;8.32;;;;;;;18.87;90.39;101162.78;5115784;28;20118;-74
2022/08/04 02:02:35;;;;;;;12.63;8.10;;;;;;;18.79;90.07;101138.31;5115748;28;20102;-74
2022/08/04 02:05:01;;;;;;;11.90;7.90;;;;;;;18.87;89.77;101143.63;5115813;28;20076;-76
2022/08/04 02:07:38;;;;;;;14.02;8.40;;;;;;;18.98;89.00;101159.19;5115695;28;20023;-76
2022/08/04 02:10:07;;;;;;;14.63;8.40;;;;;;;18.94;89.06;101152.56;5115781;28;20020;-75
2022/08/04 02:12:41;;;;;;;13.18;7.93;;;;;;;18.97;89.07;101154.91;5115506;28;20149;-74
2022/08/04 02:15:18;;;;;;;16.33;8.90;;;;;;;19.02;88.68;101151.88;5115880;28;20035;-76
2022/08/04 02:17:58;;;;;;;13.45;7.65;;;;;;;18.99;88.80;101154.78;5115458;28;20019;-74
2022/08/04 02:20:31;;;;;;;14.80;8.43;;;;;;;18.98;88.21;101140.03;5115333;28;20028;-75
2022/08/04 02:23:05;;;;;;;12.48;7.18;;;;;;;18.98;87.70;101130.41;5115472;28;20035;-74
2022/08/04 02:25:39;;;;;;;15.23;7.30;;;;;;;19.10;87.47;101142.31;5115095;28;20035;-75
2022/08/04 02:28:22;;;;;;;15.85;8.07;;;;;;;19.09;87.72;101135.44;5115311;28;20073;-74
2022/08/04 02:31:14;;;;;;;15.90;8.25;;;;;;;19.06;88.00;101140.13;5114948;28;20437;-73
2022/08/04 02:33:43;;;;;;;15.02;7.30;;;;;;;18.98;88.15;101134.81;5114934;28;20059;-77
2022/08/04 02:36:26;;;;;;;13.70;7.57;;;;;;;18.90;88.42;101118.03;5115416;28;20106;-74
2022/08/04 02:38:54;;;;;;;11.80;7.47;;;;;;;19.01;88.22;101140.56;5115080;28;20031;-76
2022/08/04 02:41:22;;;;;;;14.20;7.43;;;;;;;18.95;88.49;101140.31;5115168;28;20134;-75
2022/08/04 02:43:48;;;;;;;13.43;7.57;;;;;;;18.94;88.56;101141.28;5115184;28;20037;-74
2022/08/04 02:46:17;;;;;;;13.48;7.32;;;;;;;18.92;88.25;101130.97;5114829;28;20580;-74
2022/08/04 02:48:45;;;;;;;12.63;6.95;;;;;;;18.89;88.26;101129.47;5115038;28;20034;-75
2022/08/04 02:51:12;;;;;;;13.23;7.20;;;;;;;18.88;88.29;101127.00;5114878;28;20107;-76
2022/08/04 02:53:40;;;;;;;15.13;7.00;;;;;;;18.79;87.79;101115.59;5114824;28;20016;-81
2022/08/04 02:56:08;;;;;;;13.85;8.00;;;;;;;18.84;87.76;101134.28;5114775;28;20080;-74
2022/08/04 02:58:34;;;;;;;13.82;7.40;;;;;;;18.81;88.59;101125.91;5114664;28;20478;-74
2022/08/04 03:01:00;;;;;;;11.48;6.93;;;;;;;18.83;88.42;101129.19;5114816;28;20024;-80
2022/08/04 03:03:40;;;;;;;13.60;7.28;;;;;;;18.75;88.23;101123.84;5114681;28;20054;-80
2022/08/04 03:06:11;;;;;;;14.52;7.38;;;;;;;18.71;88.81;101125.13;5114638;28;20030;-78
2022/08/04 03:08:42;;;;;;;;;;;;;;;18.73;87.09;101125.78;5115017;28;20023;-74
2022/08/04 03:11:21;;;;;;;9.35;6.43;;;;;;;18.65;88.86;101138.75;5114643;28;20002;-79
2022/08/04 03:14:02;;;;;;;15.05;6.95;;;;;;;18.60;88.65;101132.13;5114740;28;20043;-75
2022/08/04 03:16:27;;;;;;;13.13;6.80;;;;;;;18.59;88.67;101122.63;5114390;28;20016;-73
2022/08/04 03:19:23;;;;;;;14.38;6.88;;;;;;;18.58;88.71;101134.06;5113067;28;20300;-75
2022/08/04 03:22:08;;;;;;;14.80;7.63;;;;;;;18.57;88.82;101136.78;5114109;28;20043;-74
2022/08/04 03:24:36;;;;;;;15.82;7.55;;;;;;;18.59;88.78;101140.94;5114473;28;20019;-75
2022/08/04 03:27:01;;;;;;;12.93;8.05;;;;;;;18.65;87.98;101144.78;5112971;28;20085;-74
2022/08/04 03:29:42;;;;;;;15.75;7.50;;;;;;;18.79;87.39;101146.16;5114310;28;20375;-74
2022/08/04 03:32:48;;;;;;;13.05;7.22;;;;;;;18.84;86.88;101125.63;5113768;28;20555;-74
2022/08/04 03:35:34;;;;;;;17.63;7.28;;;;;;;18.86;87.05;101126.28;5113855;28;20038;-75
2022/08/04 03:38:18;;;;;;;16.30;7.40;;;;;;;18.77;87.47;101122.72;5114197;28;20107;-75
2022/08/04 03:40:51;;;;;;;17.08;7.95;;;;;;;18.77;87.71;101135.00;5113822;28;20047;-76
2022/08/04 03:43:26;;;;;;;14.05;6.47;;;;;;;18.74;87.68;101127.44;5113960;28;20027;-76
2022/08/04 03:46:14;;;;;;;15.18;6.95;;;;;;;18.71;87.94;101132.97;5113761;28;20036;-77
2022/08/04 03:48:58;;;;;;;15.63;7.07;;;;;;;18.76;86.89;101136.78;5113628;28;20023;-74
2022/08/04 03:54:48;;;;;;;15.43;7.35;;;;;;;18.86;86.26;101142.00;5113809;28;20112;-74
2022/08/04 03:57:45;;;;;;;16.02;6.13;;;;;;;18.81;87.05;101144.22;5113609;28;20031;-75
2022/08/04 04:00:14;;;;;;;15.75;6.70;;;;;;;18.83;86.57;101153.56;5113661;28;20028;-73
2022/08/04 04:02:55;;;;;;;15.73;6.43;;;;;;;18.84;86.99;101151.78;5113439;28;20035;-77
2022/08/04 04:05:26;;;;;;;16.00;6.68;;;;;;;18.89;86.88;101145.16;5113480;28;20542;-77
2022/08/04 04:08:46;;;;;;;11.13;5.65;;;;;;;19.05;86.75;101151.56;5112191;28;20054;-77
2022/08/04 04:11:21;;;;;;;10.10;5.00;;;;;;;19.24;86.06;101151.50;4975022;28;20061;-79
2022/08/04 04:14:04;;;;;;;11.70;6.00;;;;;;;19.30;85.94;101155.34;4991194;28;20023;-76
2022/08/04 04:16:45;;;;;;;12.02;6.30;;;;;;;19.38;85.54;101155.44;4991493;28;20074;-73
2022/08/04 04:19:22;;;;;;;12.52;6.57;;;;;;;19.38;85.53;101158.06;4991311;28;20050;-75
2022/08/04 04:22:09;;;;;;;10.48;5.78;;;;;;;19.53;85.21;101161.00;4991288;28;20459;-75
2022/08/04 04:25:21;;;;;;;14.38;6.65;;;;;;;19.49;85.35;101158.69;4991420;28;20027;-74
2022/08/04 04:28:20;;;;;;;12.77;6.05;;;;;;;19.56;85.24;101165.97;4991055;28;20554;-72
2022/08/04 04:31:09;;;;;;;12.93;7.15;;;;;;;19.57;84.78;101154.53;4990857;28;20121;-76
2022/08/04 04:34:03;;;;;;;12.10;6.53;;;;;;;19.71;84.47;101162.72;4991157;28;20495;-73
2022/08/04 04:36:49;;;;;;;11.98;7.53;;;;;;;19.74;84.56;101161.59;4991237;28;20030;-73
2022/08/04 04:39:55;;;;;;;12.82;6.45;;;;;;;19.87;84.10;101164.69;4991073;28;20030;-75
2022/08/04 04:42:48;;;;;;;11.68;5.97;;;;;;;19.87;84.10;101169.94;4933352;29;20063;-75
2022/08/04 04:45:28;;;;;;;14.23;6.32;;;;;;;19.76;84.90;101157.88;4933379;29;20532;-73
2022/08/04 04:47:55;;;;;;;14.23;6.45;;;;;;;19.80;84.58;101165.41;5005308;28;20037;-72
2022/08/04 04:50:53;;;;;;;11.48;5.72;;;;;;;19.84;85.02;101157.09;5054832;28;20063;-70
2022/08/04 04:53:32;;;;;;;11.60;6.40;;;;;;;19.88;84.76;101155.03;5054337;28;20044;-69
2022/08/04 04:56:22;;;;;;;12.40;6.05;;;;;;;20.13;84.08;101159.50;5053776;28;20048;-71
2022/08/04 04:58:51;;;;;;;11.23;5.90;;;;;;;20.21;83.94;101164.81;5054124;28;20037;-71
2022/08/04 05:01:28;;;;;;;12.30;6.32;;;;;;;20.19;84.08;101148.44;5054339;28;20037;-71
2022/08/04 05:04:23;;;;;;;11.40;6.13;;;;;;;20.50;83.03;101169.84;5054099;28;20068;-73
2022/08/04 05:07:08;;;;;;;13.43;6.25;;;;;;;20.54;83.47;101179.03;5045112;28;20048;-70
2022/08/04 05:09:54;;;;;;;15.02;6.18;;;;;;;20.82;81.15;101184.97;5054130;28;20025;-72
2022/08/04 05:12:41;;;;;;;12.05;5.93;;;;;;;21.00;81.51;101178.84;5054151;28;20569;-72
2022/08/04 05:15:09;;;;;;;13.60;6.82;;;;;;;20.96;81.91;101167.84;5054082;28;20052;-75
2022/08/04 05:17:38;;;;;;;15.70;9.05;;;;;;;20.85;79.89;101158.44;5054032;28;20044;-75
2022/08/04 05:20:12;;;;;;;16.38;8.30;;;;;;;20.75;80.67;101162.16;5111295;28;20104;-73
2022/08/04 05:22:46;;;;;;;14.00;7.40;;;;;;;20.62;82.53;101165.16;5116511;28;20026;-75
2022/08/04 05:25:26;;;;;;;15.23;7.60;;;;;;;20.58;83.85;101167.28;5116861;28;20038;-75
2022/08/04 05:28:05;;;;;;;18.63;8.40;;;;;;;20.62;83.24;101170.41;5116464;28;20423;-75
2022/08/04 05:30:35;;;;;;;12.32;7.75;;;;;;;20.68;84.83;101177.69;5116329;28;20127;-74
2022/08/04 05:33:06;;;;;;;19.52;8.82;;;;;;;20.71;84.60;101166.88;5116518;28;20482;-74
2022/08/04 05:35:44;;;;;;;18.73;8.88;;;;;;;20.90;82.70;101168.47;5116405;28;20019;-74
2022/08/04 05:38:14;;;;;;;14.20;7.97;;;;;;;20.88;84.56;101149.44;5116187;28;20084;-74
2022/08/04 05:40:42;;;;;;;17.77;8.10;;;;;;;21.08;82.43;101174.47;5116498;28;20024;-74
2022/08/04 05:43:08;;;;;;;15.75;8.55;;;;;;;21.12;82.06;101173.16;5116233;28;20640;-76
2022/08/04 05:45:34;;;;;;;11.80;8.05;;;;;;;21.25;81.84;101166.69;5116430;28;20024;-74
2022/08/04 05:48:05;;;;;;;14.55;8.20;;;;;;;21.32;81.66;101163.28;5116229;28;20024;-74
2022/08/04 05:50:31;;;;;;;;;;;;;;;21.46;81.65;101159.25;5116272;28;20028;-74
2022/08/04 05:52:59;;;;;;;16.42;8.60;;;;;;;21.37;81.41;101147.06;5115940;28;19922;-74
2022/08/04 05:55:26;;;;;;;15.88;9.20;;;;;;;21.43;81.21;101149.03;5116071;28;20024;-73
2022/08/04 05:57:52;;;;;;;13.85;8.30;;;;;;;21.48;81.12;101133.63;5116183;28;20088;-76
2022/08/04 06:00:18;;;;;;;16.10;8.60;;;;;;;21.53;81.73;101139.22;5115248;28;20401;-74
2022/08/04 06:02:46;;;;;;;17.48;8.15;;;;;;;21.76;79.99;101147.31;5115940;28;20102;-74
2022/08/04 06:05:14;;;;;;;14.68;8.75;;;;;;;21.67;80.30;101129.91;5115542;28;20097;-73
2022/08/04 06:07:40;;;;;;;16.90;8.43;;;;;;;21.78;79.58;101129.56;5115713;28;20094;-75
2022/08/04 06:10:07;;;;;;;18.55;9.02;;;;;;;21.94;79.19;101152.44;5115744;28;20015;-74
2022/08/04 06:12:54;;;;;;;17.80;8.07;;;;;;;22.02;79.24;101155.91;5115890;28;20494;-75
2022/08/04 06:15:21;;;;;;;15.80;8.43;;;;;;;21.93;78.70;101122.72;5115753;28;20159;-74
2022/08/04 06:18:00;;;;;;;15.50;8.30;;;;;;;22.19;78.26;101153.31;5115739;28;20012;-75
2022/08/04 06:20:32;;;;;;;19.85;8.23;;;;;;;22.14;78.23;101150.38;5115144;28;20023;-74
2022/08/04 06:23:01;;;;;;;18.77;8.90;;;;;;;22.24;79.18;101153.66;5115646;28;20024;-74
2022/08/04 06:25:33;;;;;;;14.13;8.02;;;;;;;22.39;78.44;101157.25;5115499;28;20035;-74
2022/08/04 06:28:00;;;;;;;13.98;8.30;;;;;;;22.64;78.46;101162.50;5115328;28;20026;-76
2022/08/04 06:30:29;;;;;;;14.70;8.52;;;;;;;22.89;75.87;101149.13;5115131;28;20503;-75
2022/08/04 06:32:56;;;;;;;16.52;8.38;;;;;;;22.96;74.75;101141.38;5114962;28;20077;-76
2022/08/04 06:35:23;;;;;;;17.05;9.15;;;;;;;23.28;74.35;101156.22;5115206;28;20058;-74
2022/08/04 06:37:51;;;;;;;17.02;8.90;;;;;;;23.64;72.87;101166.31;5115250;28;20463;-75
2022/08/04 06:40:18;;;;;;;14.27;9.02;;;;;;;24.13;71.72;101168.63;5115223;28;20016;-74
2022/08/04 06:42:45;;;;;;;15.95;8.35;;;;;;;24.91;69.36;101159.50;5115053;28;20028;-74
2022/08/04 06:45:13;;;;;;;15.90;9.15;;;;;;;26.17;65.62;101175.84;5115118;28;20035;-74
2022/08/04 06:47:40;;;;;;;16.23;8.60;;;;;;;27.29;60.39;101169.69;5114796;28;20047;-74
2022/08/04 06:50:07;;;;;;;14.50;8.93;;;;;;;27.99;57.72;101168.47;5114987;28;20024;-75
2022/08/04 06:52:33;;;;;;;14.55;8.77;;;;;;;28.07;55.61;101164.81;5114936;28;20110;-75
2022/08/04 06:54:59;;;;;;;14.48;8.70;;;;;;;27.86;57.32;101176.41;5114895;28;20439;-74
2022/08/04 06:57:29;;;;;;;16.83;9.75;;;;;;;27.49;57.41;101170.56;5114789;28;20027;-74
2022/08/04 07:00:05;;;;;;;15.57;8.73;;;;;;;27.35;58.08;101184.81;5114780;28;20027;-75
2022/08/04 07:02:37;;;;;;;13.52;8.68;;;;;;;27.89;56.54;101181.31;5114643;28;20036;-75
2022/08/04 07:05:05;;;;;;;13.93;8.85;;;;;;;28.38;54.11;101180.97;5114581;28;20494;-76
2022/08/04 07:07:31;;;;;;;14.23;8.60;;;;;;;28.99;53.14;101177.22;5114762;28;20076;-75
2022/08/04 07:09:57;;;;;;;14.60;9.35;;;;;;;29.90;51.33;101172.50;5114288;28;20112;-75
2022/08/04 07:12:23;;;;;;;16.30;8.57;;;;;;;30.87;48.54;101167.56;5113553;28;20462;-74
2022/08/04 07:14:50;;;;;;;16.55;8.70;;;;;;;31.11;46.85;101173.88;5114240;28;20024;-75
2022/08/04 07:17:19;;;;;;;14.95;7.95;;;;;;;30.54;47.93;101181.22;5114507;28;20068;-74
2022/08/04 07:19:45;;;;;;;13.80;8.80;;;;;;;29.72;49.39;101185.72;5114492;28;20027;-74
2022/08/04 07:22:11;;;;;;;16.52;8.88;;;;;;;29.39;50.77;101175.22;5114335;28;20030;-74
2022/08/04 07:24:37;;;;;;;18.60;9.27;;;;;;;30.03;49.93;101176.91;5114226;28;20030;-76
2022/08/04 07:27:04;;;;;;;13.40;8.82;;;;;;;29.74;49.90;101182.84;5114441;28;20035;-76
2022/08/04 07:29:30;;;;;;;16.00;9.20;;;;;;;28.82;51.99;101190.94;5114018;28;20096;-75
2022/08/04 07:31:57;;;;;;;14.13;9.30;;;;;;;28.25;53.76;101188.91;5112560;28;20100;-75
2022/08/04 07:34:23;;;;;;;13.82;9.73;;;;;;;27.66;54.71;101182.50;5112439;28;20066;-75
2022/08/04 07:36:52;;;;;;;15.50;9.85;;;;;;;27.24;56.38;101186.22;5113828;28;20436;-75
2022/08/04 07:39:18;;;;;;;18.75;10.55;;;;;;;26.89;57.40;101185.38;5112671;28;20031;-75
2022/08/04 07:41:44;;;;;;;16.85;10.15;;;;;;;26.63;60.26;101193.13;5114034;28;20459;-74
2022/08/04 07:44:12;;;;;;;14.88;9.90;;;;;;;26.53;58.72;101191.63;5113602;28;20064;-74
2022/08/04 07:46:38;;;;;;;15.50;10.25;;;;;;;26.48;58.88;101180.81;5113855;28;20035;-74
2022/08/04 07:49:05;;;;;;;15.70;9.93;;;;;;;26.38;59.33;101190.94;5114077;28;20076;-74
2022/08/04 07:51:31;;;;;;;18.77;9.60;;;;;;;26.39;60.30;101178.50;5113454;28;20232;-74
2022/08/04 07:53:59;;;;;;;18.83;9.60;;;;;;;26.54;59.88;101189.81;5113755;28;20031;-75
2022/08/04 07:56:25;;;;;;;18.50;10.48;;;;;;;26.34;59.11;101196.75;5113509;28;20471;-74
2022/08/04 07:58:51;;;;;;;19.55;9.48;;;;;;;26.05;59.76;101201.16;5113534;28;20038;-74
2022/08/04 08:01:18;;;;;;;20.95;10.35;;;;;;;25.95;59.49;101198.84;5113489;28;20106;-75
2022/08/04 08:03:44;;;;;;;21.98;8.55;;;;;;;26.02;60.57;101191.78;5113676;28;20023;-74
2022/08/04 08:06:10;;;;;;;16.38;9.10;;;;;;;25.96;59.96;101189.91;5113375;28;20102;-74
2022/08/04 08:08:39;;;;;;;16.42;9.00;;;;;;;25.96;62.27;101200.50;5113603;28;20142;-75
2022/08/04 08:11:08;;;;;;;18.60;9.00;;;;;;;25.78;60.19;101171.00;5113173;28;20099;-74
2022/08/04 08:13:34;;;;;;;14.48;7.93;;;;;;;25.97;60.26;101203.97;5113477;28;20020;-73
2022/08/04 08:16:00;;;;;;;15.73;8.43;;;;;;;26.01;60.11;101198.09;5113269;28;20085;-75
2022/08/04 08:18:25;;;;;;;13.82;6.35;;;;;;;26.18;61.12;101211.91;5113619;28;20029;-75
2022/08/04 08:20:52;;;;;;;16.50;6.75;;;;;;;26.21;58.37;101219.47;5113149;28;20028;-75
2022/08/04 08:23:17;;;;;;;11.93;6.20;;;;;;;26.17;59.03;101210.28;5113055;28;20016;-74
2022/08/04 08:25:43;;;;;;;11.00;5.82;;;;;;;26.22;60.47;101204.38;5113034;28;20026;-74
2022/08/04 08:28:08;;;;;;;11.57;6.75;;;;;;;26.31;58.75;101208.53;5113360;28;20107;-75
2022/08/04 08:30:34;;;;;;;14.18;5.78;;;;;;;26.25;59.17;101210.16;5112935;28;20039;-74
2022/08/04 08:33:04;;;;;;;11.63;5.05;;;;;;;26.33;57.81;101222.41;5113308;28;20047;-76
2022/08/04 08:35:37;;;;;;;12.13;4.53;;;;;;;26.40;57.27;101225.97;5113377;28;20028;-77
2022/08/04 08:38:05;;;;;;;10.60;4.07;;;;;;;26.46;55.84;101206.69;5112968;28;20030;-74
2022/08/04 08:40:45;;;;;;;9.57;4.38;;;;;;;26.58;55.84;101225.50;5112883;28;20028;-75
2022/08/04 08:43:33;;;;;;;8.85;4.20;;;;;;;26.48;55.95;101233.78;5112881;28;20511;-81
2022/08/04 08:46:13;;;;;;;10.95;3.80;;;;;;;26.45;55.84;101230.69;5113039;28;20375;-76
2022/08/04 08:49:05;;;;;;;10.50;3.60;;;;;;;26.50;55.36;101223.00;5113136;28;20031;-78
2022/08/04 08:52:00;;;;;;;9.27;3.30;;;;;;;26.62;54.79;101223.28;5112621;28;20394;-77
2022/08/04 08:54:53;;;;;;;13.02;4.03;;;;;;;26.70;55.15;101244.34;5112800;28;20024;-79
2022/08/04 08:57:41;;;;;;;14.05;4.30;;;;;;;26.62;54.81;101247.13;5112978;28;20027;-76
2022/08/04 09:00:25;;;;;;;9.48;3.97;;;;;;;26.75;55.94;101236.66;5112868;28;20081;-74
2022/08/04 09:03:08;;;;;;;12.07;3.45;;;;;;;26.87;55.48;101245.69;5112832;28;20471;-78
2022/08/04 09:06:20;;;;;;;9.10;3.15;;;;;;;26.84;53.17;101243.41;5112951;28;20459;-78
2022/08/04 09:08:51;;;;;;;9.57;3.00;;;;;;;26.90;53.51;101250.59;5112423;28;20028;-78
2022/08/04 09:11:26;;;;;;;9.45;3.40;;;;;;;27.08;54.02;101239.53;5112786;28;20024;-74
2022/08/04 09:14:09;;;;;;;9.48;3.28;;;;;;;27.21;52.62;101239.59;5112745;28;20032;-74
2022/08/04 09:16:40;;;;;;;11.35;3.33;;;;;;;27.38;51.53;101234.81;5112153;28;20517;-71
2022/08/04 09:19:16;;;;;;;9.82;2.83;;;;;;;27.46;51.38;101255.88;5112572;28;20039;-74
2022/08/04 09:21:48;;;;;;;15.10;3.00;;;;;;;27.63;51.40;101243.91;5112363;28;20110;-73
2022/08/04 09:24:23;;;;;;;9.95;2.83;;;;;;;27.68;50.49;101246.78;5112697;28;20059;-78
2022/08/04 09:27:14;;;;;;;10.13;2.67;;;;;;;27.83;49.78;101254.63;5112752;28;20098;-73
2022/08/04 09:29:51;;;;;;;7.53;2.25;;;;;;;27.99;48.26;101264.03;5112601;28;20095;-77
2022/08/04 09:32:35;;;;;;;9.05;2.33;;;;;;;27.86;49.17;101261.34;5112428;28;20043;-78
2022/08/04 09:35:24;;;;;;;7.45;2.35;;;;;;;27.82;50.21;101252.13;5114656;28;20468;-77
2022/08/04 09:38:22;;;;;;;11.48;2.42;;;;;;;28.00;51.09;101271.78;5116350;28;20344;-77
2022/08/04 09:40:53;;;;;;;12.50;2.50;;;;;;;27.93;49.64;101275.47;5116305;28;20479;-77
2022/08/04 09:43:28;;;;;;;9.90;2.30;;;;;;;27.98;49.04;101247.28;5116314;28;20066;-79
2022/08/04 09:46:27;;;;;;;7.70;2.55;;;;;;;28.36;49.39;101273.34;5116112;28;20467;-74
2022/08/04 09:49:09;;;;;;;13.38;2.58;;;;;;;28.42;48.77;101271.72;5114793;28;20024;-74
2022/08/04 09:51:50;;;;;;;8.82;2.78;;;;;;;28.16;49.59;101286.56;5115872;28;20471;-78
2022/08/04 09:54:44;;;;;;;6.75;2.20;;;;;;;28.03;50.38;101289.19;5116168;28;20028;-74
2022/08/04 09:57:37;;;;;;;8.88;2.60;;;;;;;27.80;50.90;101297.47;5115978;28;20035;-77
2022/08/04 10:00:15;;;;;;;9.43;2.42;;;;;;;27.44;51.48;101287.91;5115655;28;20019;-78
2022/08/04 10:02:45;;;;;;;8.75;2.55;;;;;;;27.37;51.67;101310.09;5115898;28;20040;-75
2022/08/04 10:05:18;;;;;;;9.38;2.10;;;;;;;27.24;52.00;101313.50;5115906;28;20028;-76
2022/08/04 10:07:58;;;;;;;7.53;2.35;;;;;;;27.06;52.34;101318.47;5115729;28;20061;-71
2022/08/04 10:10:39;;;;;;;9.77;2.60;;;;;;;26.99;52.72;101320.19;5115867;28;20377;-73
2022/08/04 10:13:43;;;;;;;13.82;2.80;;;;;;;26.86;53.18;101331.53;5115590;28;20365;-77
2022/08/04 10:16:42;;;;;;;11.65;2.30;;;;;;;26.44;55.28;101327.84;5072765;28;20055;-73
2022/08/04 10:19:30;;;;;;;8.77;2.65;;;;;;;25.97;57.65;101313.28;5072622;28;20036;-77
2022/08/04 10:22:16;;;;;;;7.70;2.70;;;;;;;25.59;60.55;101325.78;5072836;28;20028;-77
2022/08/04 10:24:44;;;;;;;11.52;2.63;;;;;;;25.27;62.33;101348.13;5072806;28;20595;-74
2022/08/04 10:27:47;;;;;;;11.35;2.95;;;;;;;25.05;63.16;101383.31;5072755;28;20041;-77
2022/08/04 10:30:17;;;;;;;8.25;2.75;;;;;;;24.83;65.08;101404.25;5072038;28;20036;-77
2022/08/04 10:32:59;;;;;;;8.75;3.45;;;;;;;24.58;69.52;101411.53;5072375;28;20107;-74
2022/08/04 10:35:27;;;;;;;16.15;3.80;;;;;;;24.30;74.38;101405.06;5072748;28;20569;-80
2022/08/04 10:38:08;;;;;;;10.57;3.45;;;;;;;24.06;74.60;101405.13;5072455;28;20028;-79
2022/08/04 10:40:45;;;;;;;14.38;4.05;;;;;;;23.74;77.31;101389.25;5072527;28;20402;-75
2022/08/04 10:43:18;;;;;;;9.38;3.20;;;;;;;23.56;76.40;101391.22;5072474;28;20086;-79
2022/08/04 10:45:48;;;;;;;14.43;4.10;;;;;;;23.45;80.81;101381.03;5071965;28;20059;-80
2022/08/04 10:48:16;;;;;;;15.85;4.25;;;;;;;23.44;80.62;101353.03;5072303;28;20399;-79
2022/08/04 10:50:54;;;;;;;13.52;4.25;;;;;;;23.29;81.84;101333.63;5072236;28;20037;-78
2022/08/04 10:53:24;;;;;;;8.40;4.03;;;;;;;23.22;82.08;101303.66;5110012;28;20032;-74
2022/08/04 10:56:01;;;;;;;12.23;4.60;;;;;;;23.43;83.84;101306.59;5115167;28;20172;-81
2022/08/04 10:58:34;;;;;;;13.82;5.05;;;;;;;23.58;83.21;101309.31;5115032;28;20027;-70
2022/08/04 11:01:05;;;;;;;12.73;4.25;;;;;;;23.73;80.81;101319.03;5114855;28;20031;-77
2022/08/04 11:03:42;;;;;;;10.25;4.90;;;;;;;23.91;82.04;101323.25;5114845;28;20059;-75
2022/08/04 11:06:08;;;;;;;14.00;5.05;;;;;;;24.03;79.31;101313.97;5114663;28;20030;-72
2022/08/04 11:08:43;;;;;;;10.63;5.47;;;;;;;24.30;78.60;101342.53;5114657;28;20027;-79
2022/08/04 11:11:23;;;;;;;8.15;3.20;;;;;;;24.37;75.34;101345.31;5114455;28;20023;-76
2022/08/04 11:13:59;;;;;;;6.85;3.55;;;;;;;24.50;74.71;101347.38;5113100;28;20410;-74
2022/08/04 11:16:56;;;;;;;11.15;4.70;;;;;;;24.44;75.35;101346.25;5114159;28;20030;-78
2022/08/04 11:19:43;;;;;;;8.18;3.42;;;;;;;24.22;75.16;101324.09;5113873;28;20039;-79
2022/08/04 11:22:13;;;;;;;10.02;4.90;;;;;;;23.89;79.55;101297.06;5114326;28;20455;-78
2022/08/04 11:24:44;;;;;;;10.50;4.53;;;;;;;23.99;79.77;101321.41;5114102;28;20102;-79
2022/08/04 11:27:24;;;;;;;;;;;;;;;24.17;75.59;101315.03;5114439;28;20028;-79
2022/08/04 11:29:59;;;;;;;8.38;4.13;;;;;;;24.05;77.79;101333.06;5114409;28;19911;-79
2022/08/04 11:32:51;;;;;;;8.50;4.50;;;;;;;24.17;77.95;101333.50;5113998;28;20399;-74
2022/08/04 11:35:36;;;;;;;;;;;;;;;24.35;75.01;101325.38;5114418;28;20027;-82
2022/08/04 11:38:15;;;;;;;10.50;5.20;;;;;;;24.47;75.53;101324.78;5105183;28;19907;-79
2022/08/04 11:40:42;;;;;;;10.63;4.97;;;;;;;24.77;75.04;101320.41;5113956;28;20517;-77
2022/08/04 11:43:57;;;;;;;10.10;5.00;;;;;;;25.08;72.93;101323.03;5113962;28;20102;-77
2022/08/04 11:46:33;;;;;;;11.25;5.13;;;;;;;25.25;74.69;101321.03;5071117;28;20036;-78
2022/08/04 11:49:14;;;;;;;10.73;5.00;;;;;;;25.30;74.32;101313.38;5071265;28;20024;-75
2022/08/04 11:51:41;;;;;;;15.07;4.90;;;;;;;25.21;71.40;101326.84;5070966;28;20074;-79
2022/08/04 11:54:08;;;;;;;9.35;4.20;;;;;;;25.23;73.91;101328.31;5070878;28;20028;-74
2022/08/04 11:56:33;;;;;;;11.20;4.43;;;;;;;25.25;71.19;101330.78;5070181;28;20067;-79
2022/08/04 11:59:00;;;;;;;12.43;3.92;;;;;;;25.22;71.51;101316.09;5071165;28;20060;-80
2022/08/04 12:01:34;;;;;;;11.10;4.30;;;;;;;25.52;69.45;101318.75;5071039;28;20029;-79